createdAt,value
2022-08-03T00:00:55.202Z,99256.94
2022-08-03T00:06:03.826Z,99257.45
2022-08-03T00:11:08.269Z,99258.98
2022-08-03T00:16:11.475Z,99263.75
2022-08-03T00:21:14.414Z,99264.95
2022-08-03T00:26:18.700Z,99262.91
2022-08-03T00:31:40.034Z,99260.52
2022-08-03T00:36:44.448Z,99263.73
2022-08-03T00:41:47.332Z,99263.55
2022-08-03T00:46:50.175Z,99265.48
2022-08-03T00:51:53.172Z,99272.66
2022-08-03T00:56:59.728Z,99276.88
2022-08-03T01:02:03.447Z,99280.96
2022-08-03T01:07:22.067Z,99276.91
2022-08-03T01:12:33.231Z,99275.45
2022-08-03T01:17:44.219Z,99268.26
2022-08-03T01:23:03.535Z,99271.70
2022-08-03T01:28:15.339Z,99269.88
2022-08-03T01:33:22.904Z,99272.87
2022-08-03T01:38:32.248Z,99275.44
2022-08-03T01:43:55.454Z,99276.62
2022-08-03T01:49:01.377Z,99274.44
2022-08-03T01:54:13.709Z,99265.48
2022-08-03T01:59:19.144Z,99267.54
2022-08-03T02:04:22.623Z,99259.35
2022-08-03T02:09:28.916Z,99258.34
2022-08-03T02:14:31.977Z,99262.17
2022-08-03T02:19:36.143Z,99260.73
2022-08-03T02:24:39.241Z,99262.52
2022-08-03T02:29:45.927Z,99258.55
2022-08-03T02:34:51.899Z,99257.70
2022-08-03T02:40:01.145Z,99258.34
2022-08-03T02:45:08.905Z,99261.02
2022-08-03T02:50:15.551Z,99255.36
2022-08-03T02:55:20.561Z,99255.90
2022-08-03T03:00:28.135Z,99256.39
2022-08-03T03:05:54.836Z,99260.02
2022-08-03T03:10:57.289Z,99266.16
2022-08-03T03:16:02.753Z,99270.52
2022-08-03T03:21:08.503Z,99267.48
2022-08-03T03:26:13.386Z,99265.84
2022-08-03T03:31:16.632Z,99263.92
2022-08-03T03:36:19.719Z,99264.29
2022-08-03T03:41:22.711Z,99263.20
2022-08-03T03:46:26.038Z,99270.80
2022-08-03T03:51:28.955Z,99277.30
2022-08-03T03:56:31.807Z,99279.56
2022-08-03T04:01:34.680Z,99282.61
2022-08-03T04:06:56.158Z,99283.38
2022-08-03T04:12:01.983Z,99290.34
2022-08-03T04:17:09.400Z,99294.69
2022-08-03T04:22:15.882Z,99296.20
2022-08-03T04:27:23.338Z,99299.95
2022-08-03T04:32:28.901Z,99303.08
2022-08-03T04:37:48.077Z,99314.49
2022-08-03T04:42:52.950Z,99316.64
2022-08-03T04:47:56.315Z,99321.25
2022-08-03T04:52:59.538Z,99326.64
2022-08-03T04:58:04.781Z,99330.77
2022-08-03T05:03:19.399Z,99328.42
2022-08-03T05:08:28.411Z,99324.76
2022-08-03T05:13:31.565Z,99323.87
2022-08-03T05:18:35.983Z,99323.16
2022-08-03T05:23:38.926Z,99324.89
2022-08-03T05:28:51.089Z,99322.71
2022-08-03T05:33:54.805Z,99323.79
2022-08-03T05:39:02.499Z,99321.20
2022-08-03T05:44:06.604Z,99320.24
2022-08-03T05:49:09.521Z,99323.30
2022-08-03T05:54:12.492Z,99323.55
2022-08-03T05:59:37.181Z,99322.84
2022-08-03T06:04:38.243Z,99322.70
2022-08-03T06:10:34.983Z,99326.21
2022-08-03T06:15:05.200Z,99330.86
2022-08-03T06:20:11.643Z,99331.80
2022-08-03T06:25:15.013Z,99334.04
2022-08-03T06:30:21.298Z,99331.85
2022-08-03T06:35:24.683Z,99327.39
2022-08-03T06:40:31.567Z,99329.09
2022-08-03T06:45:35.448Z,99335.42
2022-08-03T06:50:42.562Z,99331.52
2022-08-03T06:55:45.528Z,99333.39
2022-08-03T07:00:48.385Z,99334.17
2022-08-03T07:05:51.503Z,99330.75
2022-08-03T07:10:54.614Z,99336.02
2022-08-03T07:15:57.579Z,99336.13
2022-08-03T07:21:00.560Z,99336.42
2022-08-03T07:26:03.671Z,99337.65
2022-08-03T07:31:06.506Z,99341.83
2022-08-03T07:36:09.363Z,99340.36
2022-08-03T07:41:12.462Z,99340.87
2022-08-03T07:46:15.549Z,99342.70
2022-08-03T07:51:18.549Z,99339.00
2022-08-03T07:56:21.538Z,99337.13
2022-08-03T08:01:24.608Z,99334.83
2022-08-03T08:06:27.540Z,99329.60
2022-08-03T08:11:30.387Z,99330.42
2022-08-03T08:16:33.288Z,99333.45
2022-08-03T08:21:53.649Z,99335.06
2022-08-03T08:26:58.960Z,99334.42
2022-08-03T08:32:01.903Z,99333.48
2022-08-03T08:37:05.224Z,99333.68
2022-08-03T08:42:08.045Z,99333.32
2022-08-03T08:47:12.319Z,99337.88
2022-08-03T08:52:24.959Z,99334.84
2022-08-03T08:57:42.918Z,99336.83
2022-08-03T09:02:47.077Z,99331.41
2022-08-03T09:07:52.231Z,99331.66
2022-08-03T09:12:55.241Z,99330.72
2022-08-03T09:18:01.209Z,99327.86
2022-08-03T09:23:44.512Z,99326.98
2022-08-03T09:28:53.876Z,99324.23
2022-08-03T09:34:01.754Z,99317.83
2022-08-03T09:39:13.074Z,99319.78
2022-08-03T09:44:25.788Z,99319.98
2022-08-03T09:49:29.125Z,99316.45
2022-08-03T09:54:32.713Z,99313.20
2022-08-03T09:59:35.670Z,99314.16
2022-08-03T10:04:48.572Z,99312.90
2022-08-03T10:10:28.978Z,99304.59
2022-08-03T10:16:21.427Z,99310.38
2022-08-03T10:20:52.157Z,99308.10
2022-08-03T10:26:02.071Z,99305.36
2022-08-03T10:31:07.744Z,99307.79
2022-08-03T10:36:13.626Z,99306.57
2022-08-03T10:41:20.159Z,99302.37
2022-08-03T10:46:23.434Z,99305.38
2022-08-03T10:51:31.994Z,99303.88
2022-08-03T10:56:53.511Z,99299.96
2022-08-03T11:02:00.778Z,99292.19
2022-08-03T11:07:25.374Z,99290.86
2022-08-03T11:12:33.173Z,99294.34
2022-08-03T11:17:46.881Z,99287.02
2022-08-03T11:23:01.849Z,99278.61
2022-08-03T11:28:30.690Z,99270.19
2022-08-03T11:33:33.710Z,99268.81
2022-08-03T11:39:16.880Z,99262.15
2022-08-03T11:44:42.256Z,99256.15
2022-08-03T11:49:51.930Z,99252.34
2022-08-03T11:54:56.895Z,99251.58
2022-08-03T12:00:00.614Z,99244.98
2022-08-03T12:05:03.906Z,99244.50
2022-08-03T12:10:12.342Z,99240.48
2022-08-03T12:15:15.246Z,99233.09
2022-08-03T12:20:34.644Z,99227.77
2022-08-03T12:25:40.126Z,99227.50
2022-08-03T12:30:43.857Z,99227.60
2022-08-03T12:36:08.328Z,99220.77
2022-08-03T12:41:13.765Z,99216.16
2022-08-03T12:46:18.337Z,99211.13
2022-08-03T12:51:21.081Z,99213.96
2022-08-03T12:56:24.764Z,99209.26
2022-08-03T13:01:37.337Z,99207.21
2022-08-03T13:06:40.233Z,99204.58
2022-08-03T13:11:52.522Z,99200.04
2022-08-03T13:17:06.526Z,99193.75
2022-08-03T13:22:24.914Z,99192.11
2022-08-03T13:28:04.478Z,99195.69
2022-08-03T13:32:52.350Z,99191.61
2022-08-03T13:37:55.212Z,99187.83
2022-08-03T13:42:58.602Z,99177.70
2022-08-03T13:48:01.580Z,99181.34
2022-08-03T13:53:04.642Z,99187.93
2022-08-03T13:58:09.716Z,99184.44
2022-08-03T14:03:14.395Z,99179.32
2022-08-03T14:08:18.363Z,99177.15
2022-08-03T14:13:21.296Z,99175.55
2022-08-03T14:18:28.564Z,99176.91
2022-08-03T14:23:39.893Z,99173.70
2022-08-03T14:28:42.739Z,99171.69
2022-08-03T14:33:45.927Z,99167.08
2022-08-03T14:38:48.756Z,99163.20
2022-08-03T14:44:02.145Z,99162.74
2022-08-03T14:50:36.976Z,99155.56
2022-08-03T14:54:31.090Z,99158.58
2022-08-03T14:59:55.581Z,99160.06
2022-08-03T15:04:57.089Z,99157.98
2022-08-03T15:10:00.013Z,99157.98
2022-08-03T15:15:06.015Z,99153.86
2022-08-03T15:20:22.531Z,99149.60
2022-08-03T15:26:06.493Z,99147.15
2022-08-03T15:30:55.550Z,99145.10
2022-08-03T15:36:00.351Z,99143.93
2022-08-03T15:41:03.556Z,99143.81
2022-08-03T15:46:28.653Z,99143.20
2022-08-03T15:51:30.014Z,99141.70
2022-08-03T15:56:32.906Z,99135.02
2022-08-03T16:01:36.044Z,99132.55
2022-08-03T16:06:39.017Z,99129.19
2022-08-03T16:11:41.881Z,99126.95
2022-08-03T16:16:44.731Z,99124.58
2022-08-03T16:21:50.169Z,99116.10
2022-08-03T16:26:53.232Z,99112.40
2022-08-03T16:31:56.083Z,99110.80
2022-08-03T16:37:11.763Z,99104.89
2022-08-03T16:42:22.967Z,99104.73
2022-08-03T16:47:25.845Z,99105.07
2022-08-03T16:52:28.792Z,99104.53
2022-08-03T16:57:58.241Z,99108.80
2022-08-03T17:02:56.942Z,99111.94
2022-08-03T17:08:05.221Z,99116.54
2022-08-03T17:13:21.453Z,99116.27
2022-08-03T17:18:29.816Z,99121.94
2022-08-03T17:23:53.608Z,99127.29
2022-08-03T17:29:12.812Z,99127.62
2022-08-03T17:34:16.741Z,99132.30
2022-08-03T17:39:41.826Z,99140.21
2022-08-03T17:44:47.101Z,99145.08
2022-08-03T17:49:50.161Z,99146.35
2022-08-03T17:55:55.587Z,99154.20
2022-08-03T18:00:59.640Z,99154.45
2022-08-03T18:06:11.163Z,99157.24
2022-08-03T18:11:21.842Z,99158.03
2022-08-03T18:16:31.395Z,99163.91
2022-08-03T18:21:41.421Z,99174.09
2022-08-03T18:26:59.599Z,99179.82
2022-08-03T18:32:13.247Z,99187.11
2022-08-03T18:37:23.012Z,99194.20
2022-08-03T18:42:27.775Z,99199.09
2022-08-03T18:47:50.514Z,99203.56
2022-08-03T18:53:19.638Z,99212.98
2022-08-03T18:58:40.745Z,99216.48
2022-08-03T19:03:48.340Z,99222.27
2022-08-03T19:09:04.358Z,99219.09
2022-08-03T19:14:11.345Z,99219.76
2022-08-03T19:19:18.136Z,99224.03
2022-08-03T19:24:26.124Z,99229.83
2022-08-03T19:29:57.947Z,99233.91
2022-08-03T19:34:54.973Z,99231.70
2022-08-03T19:39:58.612Z,99234.92
2022-08-03T19:45:13.914Z,99238.46
2022-08-03T19:50:20.121Z,99242.76
2022-08-03T19:55:26.546Z,99245.75
2022-08-03T20:00:38.244Z,99244.98
2022-08-03T20:05:51.846Z,99242.75
2022-08-03T20:10:55.611Z,99245.36
2022-08-03T20:15:58.569Z,99245.25
2022-08-03T20:21:14.741Z,99241.40
2022-08-03T20:26:20.350Z,99234.17
2022-08-03T20:31:32.560Z,99231.61
2022-08-03T20:36:39.313Z,99226.11
2022-08-03T20:41:42.451Z,99220.27
2022-08-03T20:46:53.516Z,99224.83
2022-08-03T20:52:03.935Z,99223.88
2022-08-03T20:57:09.565Z,99229.48
2022-08-03T21:02:13.228Z,99237.14
2022-08-03T21:07:24.072Z,99238.23
2022-08-03T21:12:41.349Z,99239.94
2022-08-03T21:17:48.219Z,99237.61
2022-08-03T21:22:54.278Z,99240.21
2022-08-03T21:27:58.063Z,99248.24
2022-08-03T21:33:01.052Z,99253.02
2022-08-03T21:38:19.527Z,99250.95
2022-08-03T21:43:22.748Z,99255.70
2022-08-03T21:48:27.313Z,99257.84
2022-08-03T21:54:02.727Z,99260.66
2022-08-03T21:59:04.678Z,99264.33
2022-08-03T22:04:11.819Z,99263.70
2022-08-03T22:09:31.148Z,99260.94
2022-08-03T22:14:34.065Z,99257.91
2022-08-03T22:19:37.323Z,99254.16
2022-08-03T22:24:44.395Z,99254.52
2022-08-03T22:29:49.412Z,99256.37
2022-08-03T22:34:52.921Z,99262.13
2022-08-03T22:39:57.086Z,99260.19
2022-08-03T22:45:02.299Z,99265.80
2022-08-03T22:50:31.878Z,99259.17
2022-08-03T22:55:31.366Z,99262.46
2022-08-03T23:00:34.309Z,99262.48
2022-08-03T23:06:01.020Z,99261.16
2022-08-03T23:11:06.172Z,99257.73
2022-08-03T23:16:09.929Z,99254.90
2022-08-03T23:21:15.224Z,99254.52
2022-08-03T23:26:18.579Z,99252.16
2022-08-03T23:31:22.133Z,99251.55
2022-08-03T23:36:30.411Z,99250.34
2022-08-03T23:41:35.726Z,99248.61
2022-08-03T23:46:39.340Z,99242.92
2022-08-03T23:51:57.161Z,99238.82
2022-08-03T23:57:17.884Z,99243.25
